createdAt,value
2022-08-05T00:00:02.000Z,76.78
2022-08-05T00:01:20.940Z,78.23
2022-08-05T00:02:07.387Z,78.23
2022-08-05T00:03:02.200Z,78.03
2022-08-05T00:04:02.183Z,78.61
2022-08-05T00:05:05.827Z,78.71
2022-08-05T00:06:20.209Z,79.10
2022-08-05T00:07:26.752Z,78.23
2022-08-05T00:08:01.983Z,78.00
2022-08-05T00:09:01.984Z,77.51
2022-08-05T00:10:02.027Z,79.35
2022-08-05T00:11:01.970Z,79.45
2022-08-05T00:12:01.972Z,77.51
2022-08-05T00:13:01.963Z,76.74
2022-08-05T00:14:02.116Z,78.29
2022-08-05T00:15:54.560Z,78.87
2022-08-05T00:16:01.953Z,79.16
2022-08-05T00:17:02.999Z,79.50
2022-08-05T00:18:02.667Z,80.08
2022-08-05T00:19:01.950Z,79.89
2022-08-05T00:20:03.129Z,79.99
2022-08-05T00:21:01.944Z,80.51
2022-08-05T00:22:01.952Z,80.86
2022-08-05T00:23:12.952Z,81.34
2022-08-05T00:24:10.622Z,81.53
2022-08-05T00:25:01.924Z,81.73
2022-08-05T00:26:01.937Z,82.06
2022-08-05T00:27:04.653Z,81.48
2022-08-05T00:28:01.913Z,81.63
2022-08-05T00:29:02.156Z,81.24
2022-08-05T00:30:03.216Z,82.02
2022-08-05T00:31:04.236Z,81.82
2022-08-05T00:32:12.906Z,80.28
2022-08-05T00:33:01.909Z,79.22
2022-08-05T00:34:54.359Z,79.41
2022-08-05T00:35:06.869Z,80.57
2022-08-05T00:36:15.968Z,81.05
2022-08-05T00:37:12.653Z,81.44
2022-08-05T00:38:01.889Z,81.34
2022-08-05T00:39:01.955Z,81.34
2022-08-05T00:40:02.191Z,81.44
2022-08-05T00:41:01.905Z,81.53
2022-08-05T00:42:01.879Z,81.73
2022-08-05T00:43:02.079Z,81.87
2022-08-05T00:44:01.885Z,82.02
2022-08-05T00:45:01.870Z,82.21
2022-08-05T00:46:01.856Z,82.69
2022-08-05T00:47:05.706Z,82.60
2022-08-05T00:48:05.550Z,82.50
2022-08-05T00:49:01.858Z,82.40
2022-08-05T00:50:01.852Z,82.40
2022-08-05T00:51:08.835Z,82.79
2022-08-05T00:52:01.858Z,82.79
2022-08-05T00:53:01.852Z,83.18
2022-08-05T00:54:02.490Z,82.98
2022-08-05T00:55:01.869Z,83.37
2022-08-05T00:56:01.831Z,83.95
2022-08-05T00:57:01.862Z,83.37
2022-08-05T00:58:01.846Z,83.47
2022-08-05T00:59:01.846Z,83.47
2022-08-05T01:00:01.836Z,83.37
2022-08-05T01:01:01.851Z,84.14
2022-08-05T01:02:01.835Z,84.14
2022-08-05T01:03:01.818Z,83.66
2022-08-05T01:04:01.834Z,83.85
2022-08-05T01:05:01.828Z,84.05
2022-08-05T01:06:01.822Z,84.82
2022-08-05T01:07:01.829Z,84.05
2022-08-05T01:08:40.697Z,84.05
2022-08-05T01:09:03.118Z,85.21
2022-08-05T01:10:01.821Z,85.21
2022-08-05T01:11:01.806Z,85.49
2022-08-05T01:12:17.900Z,84.63
2022-08-05T01:13:13.033Z,85.21
2022-08-05T01:14:01.817Z,85.30
2022-08-05T01:15:04.057Z,85.21
2022-08-05T01:16:01.777Z,85.21
2022-08-05T01:17:02.048Z,85.40
2022-08-05T01:18:01.774Z,85.40
2022-08-05T01:19:01.780Z,85.40
2022-08-05T01:20:03.606Z,85.59
2022-08-05T01:21:01.772Z,86.13
2022-08-05T01:22:01.768Z,85.84
2022-08-05T01:23:14.561Z,84.78
2022-08-05T01:24:01.765Z,85.55
2022-08-05T01:25:01.775Z,86.03
2022-08-05T01:26:01.761Z,86.22
2022-08-05T01:27:17.953Z,86.52
2022-08-05T01:28:01.751Z,87.00
2022-08-05T01:29:05.057Z,87.58
2022-08-05T01:30:01.747Z,87.29
2022-08-05T01:31:03.027Z,87.58
2022-08-05T01:32:01.736Z,86.52
2022-08-05T01:33:01.759Z,86.71
2022-08-05T01:34:01.755Z,86.32
2022-08-05T01:35:01.717Z,87.29
2022-08-05T01:36:01.721Z,88.31
2022-08-05T01:37:01.730Z,88.11
2022-08-05T01:38:01.713Z,87.73
2022-08-05T01:39:01.788Z,88.89
2022-08-05T01:40:01.778Z,88.79
2022-08-05T01:41:01.929Z,89.56
2022-08-05T01:42:01.723Z,89.27
2022-08-05T01:43:01.705Z,89.17
2022-08-05T01:44:01.732Z,89.95
2022-08-05T01:45:02.384Z,89.65
2022-08-05T01:46:07.204Z,90.23
2022-08-05T01:47:01.720Z,90.05
2022-08-05T01:48:01.698Z,90.33
2022-08-05T01:49:01.688Z,89.37
2022-08-05T01:50:03.152Z,90.23
2022-08-05T01:51:12.300Z,90.23
2022-08-05T01:52:02.010Z,90.05
2022-08-05T01:53:01.902Z,90.33
2022-08-05T01:54:02.142Z,90.33
2022-08-05T01:55:01.705Z,90.14
2022-08-05T01:56:04.457Z,88.89
2022-08-05T01:58:10.129Z,89.17
2022-08-05T01:58:29.945Z,88.89
2022-08-05T01:59:01.760Z,89.27
2022-08-05T02:00:01.941Z,89.13
2022-08-05T02:01:01.793Z,89.32
2022-08-05T02:02:01.779Z,88.75
2022-08-05T02:03:03.512Z,88.55
2022-08-05T02:04:01.758Z,88.84
2022-08-05T02:05:03.075Z,89.13
2022-08-05T02:06:03.539Z,89.13
2022-08-05T02:07:03.468Z,90.09
2022-08-05T02:08:02.055Z,90.00
2022-08-05T02:09:01.925Z,90.77
2022-08-05T02:10:01.896Z,89.90
2022-08-05T02:11:01.904Z,90.48
2022-08-05T02:12:01.608Z,90.67
2022-08-05T02:13:01.624Z,90.09
2022-08-05T02:14:01.693Z,90.58
2022-08-05T02:15:03.076Z,91.35
2022-08-05T02:16:01.842Z,91.25
2022-08-05T02:17:01.592Z,90.72
2022-08-05T02:18:33.258Z,91.20
2022-08-05T02:19:01.874Z,91.69
2022-08-05T02:20:01.741Z,90.92
2022-08-05T02:21:01.855Z,90.15
2022-08-05T02:22:01.861Z,90.34
2022-08-05T02:23:01.890Z,91.02
2022-08-05T02:24:01.597Z,91.50
2022-08-05T02:25:01.815Z,91.78
2022-08-05T02:26:01.758Z,91.88
2022-08-05T02:27:10.066Z,92.36
2022-08-05T02:28:01.754Z,92.27
2022-08-05T02:29:01.584Z,93.04
2022-08-05T02:30:01.806Z,92.85
2022-08-05T02:31:01.830Z,93.66
2022-08-05T02:32:04.780Z,94.20
2022-08-05T02:33:01.840Z,95.40
2022-08-05T02:34:01.802Z,95.50
2022-08-05T02:35:09.723Z,95.98
2022-08-05T02:36:01.873Z,95.26
2022-08-05T02:37:01.721Z,95.54
2022-08-05T02:38:02.414Z,96.03
2022-08-05T02:39:01.912Z,96.22
2022-08-05T02:40:01.767Z,96.22
2022-08-05T02:41:06.471Z,95.84
2022-08-05T02:42:01.701Z,95.36
2022-08-05T02:43:01.787Z,95.06
2022-08-05T02:44:05.966Z,95.26
2022-08-05T02:45:01.754Z,94.87
2022-08-05T02:46:01.729Z,94.68
2022-08-05T02:47:01.870Z,93.71
2022-08-05T02:48:11.803Z,94.48
2022-08-05T02:49:01.759Z,94.24
2022-08-05T02:50:01.526Z,93.08
2022-08-05T02:51:01.738Z,93.85
2022-08-05T02:52:03.853Z,93.76
2022-08-05T02:53:01.655Z,93.66
2022-08-05T02:54:04.134Z,92.99
2022-08-05T02:55:05.553Z,93.66
2022-08-05T02:56:02.405Z,93.47
2022-08-05T02:57:01.734Z,93.85
2022-08-05T02:58:11.546Z,94.05
2022-08-05T02:59:01.756Z,94.05
2022-08-05T03:00:01.751Z,93.47
2022-08-05T03:01:02.044Z,91.25
2022-08-05T03:02:01.755Z,90.53
2022-08-05T03:03:01.659Z,91.60
2022-08-05T03:04:03.232Z,92.75
2022-08-05T03:05:01.745Z,93.71
2022-08-05T03:06:56.474Z,93.91
2022-08-05T03:07:01.449Z,94.20
2022-08-05T03:08:08.901Z,95.36
2022-08-05T03:09:01.682Z,95.45
2022-08-05T03:10:02.187Z,95.31
2022-08-05T03:11:56.586Z,96.08
2022-08-05T03:12:01.846Z,96.17
2022-08-05T03:13:52.238Z,96.32
2022-08-05T03:14:46.321Z,96.08
2022-08-05T03:15:45.314Z,96.03
2022-08-05T03:16:45.407Z,96.51
2022-08-05T03:17:45.312Z,96.51
2022-08-05T03:18:45.500Z,96.51
2022-08-05T03:19:45.720Z,96.41
2022-08-05T03:20:48.638Z,97.09
2022-08-05T03:21:49.645Z,96.70
2022-08-05T03:22:49.980Z,96.80
2022-08-05T03:23:45.788Z,96.70
2022-08-05T03:24:46.934Z,96.80
2022-08-05T03:26:31.135Z,96.99
2022-08-05T03:26:45.711Z,96.70
2022-08-05T03:27:58.940Z,96.32
2022-08-05T03:28:45.481Z,96.51
2022-08-05T03:30:08.083Z,95.74
2022-08-05T03:30:45.442Z,95.36
2022-08-05T03:31:57.150Z,95.84
2022-08-05T03:32:45.220Z,96.22
2022-08-05T03:33:52.680Z,95.88
2022-08-05T03:34:51.067Z,95.98
2022-08-05T03:35:45.464Z,95.69
2022-08-05T03:36:45.709Z,95.40
2022-08-05T03:37:46.206Z,95.01
2022-08-05T03:38:53.433Z,95.31
2022-08-05T03:39:47.356Z,95.11
2022-08-05T03:40:48.431Z,94.92
2022-08-05T03:41:46.945Z,94.82
2022-08-05T03:42:52.026Z,95.01
2022-08-05T03:44:08.401Z,95.11
2022-08-05T03:44:45.187Z,95.21
2022-08-05T03:45:57.080Z,94.92
2022-08-05T03:46:45.183Z,94.05
2022-08-05T03:47:45.189Z,93.76
2022-08-05T03:48:45.365Z,93.57
2022-08-05T03:49:51.936Z,93.85
2022-08-05T03:50:45.478Z,92.36
2022-08-05T03:52:37.864Z,93.13
2022-08-05T03:55:06.810Z,92.46
2022-08-05T03:55:52.265Z,92.65
2022-08-05T03:55:52.520Z,91.49
2022-08-05T03:56:04.209Z,91.30
2022-08-05T03:56:46.290Z,91.30
2022-08-05T03:57:45.679Z,90.53
2022-08-05T03:58:45.151Z,90.91
2022-08-05T03:59:46.723Z,91.01
2022-08-05T04:00:46.466Z,89.95
2022-08-05T04:01:45.310Z,89.99
2022-08-05T04:02:57.928Z,89.89
2022-08-05T04:04:09.296Z,90.37
2022-08-05T04:04:45.128Z,91.44
2022-08-05T04:05:45.125Z,90.19
2022-08-05T04:06:47.990Z,90.67
2022-08-05T04:07:57.287Z,90.47
2022-08-05T04:08:45.114Z,89.89
2022-08-05T04:09:53.715Z,90.28
2022-08-05T04:10:45.101Z,90.47
2022-08-05T04:11:50.510Z,90.28
2022-08-05T04:12:45.101Z,90.47
2022-08-05T04:13:49.746Z,91.05
2022-08-05T04:14:45.092Z,90.67
2022-08-05T04:16:03.292Z,90.57
2022-08-05T04:16:45.095Z,90.33
2022-08-05T04:17:56.091Z,90.53
2022-08-05T04:18:45.070Z,90.43
2022-08-05T04:19:45.122Z,90.33
2022-08-05T04:20:45.073Z,90.43
2022-08-05T04:22:09.577Z,90.43
2022-08-05T04:22:45.081Z,91.01
2022-08-05T04:24:05.200Z,91.49
2022-08-05T04:24:52.589Z,91.97
2022-08-05T04:25:57.355Z,90.14
2022-08-05T04:26:45.043Z,88.59
2022-08-05T04:27:57.237Z,88.69
2022-08-05T04:28:47.111Z,88.89
2022-08-05T04:29:45.045Z,88.69
2022-08-05T04:30:45.125Z,88.98
2022-08-05T04:31:46.216Z,89.47
2022-08-05T04:32:45.040Z,89.17
2022-08-05T04:34:17.428Z,90.05
2022-08-05T04:34:45.017Z,89.27
2022-08-05T04:36:16.609Z,89.17
2022-08-05T04:36:50.213Z,89.37
2022-08-05T04:38:02.438Z,89.56
2022-08-05T04:38:45.017Z,90.23
2022-08-05T04:39:45.050Z,90.05
2022-08-05T04:40:50.555Z,90.33
2022-08-05T04:41:45.702Z,90.43
2022-08-05T04:42:45.030Z,88.89
2022-08-05T04:43:46.753Z,89.47
2022-08-05T04:44:45.032Z,89.61
2022-08-05T04:45:49.027Z,88.93
2022-08-05T04:47:44.977Z,88.83
2022-08-05T04:48:44.985Z,88.87
2022-08-05T04:50:02.933Z,88.78
2022-08-05T04:51:02.502Z,89.17
2022-08-05T04:51:45.170Z,88.29
2022-08-05T04:52:44.981Z,88.39
2022-08-05T04:53:44.969Z,87.62
2022-08-05T04:54:44.968Z,87.81
2022-08-05T04:56:14.899Z,87.47
2022-08-05T04:56:44.957Z,87.76
2022-08-05T04:57:47.809Z,88.34
2022-08-05T04:58:44.973Z,87.66
2022-08-05T04:59:45.006Z,87.51
2022-08-05T05:00:44.942Z,87.23
2022-08-05T05:02:35.575Z,87.51
2022-08-05T05:02:45.006Z,87.32
2022-08-05T05:03:44.940Z,86.20
2022-08-05T05:04:47.674Z,86.40
2022-08-05T05:06:39.693Z,86.10
2022-08-05T05:06:51.835Z,86.01
2022-08-05T05:07:52.995Z,86.63
2022-08-05T05:08:44.918Z,86.05
2022-08-05T05:09:44.920Z,85.86
2022-08-05T05:10:47.320Z,83.92
2022-08-05T05:11:53.865Z,84.41
2022-08-05T05:12:44.930Z,83.96
2022-08-05T05:13:44.904Z,83.77
2022-08-05T05:14:50.573Z,83.58
2022-08-05T05:15:56.763Z,83.58
2022-08-05T05:16:44.903Z,83.48
2022-08-05T05:17:56.532Z,83.67
2022-08-05T05:19:02.583Z,83.58
2022-08-05T05:19:47.442Z,83.44
2022-08-05T05:20:46.043Z,83.83
2022-08-05T05:21:44.888Z,84.01
2022-08-05T05:22:44.875Z,85.14
2022-08-05T05:24:03.747Z,85.42
2022-08-05T05:24:57.186Z,85.82
2022-08-05T05:25:44.865Z,85.72
2022-08-05T05:26:46.499Z,86.45
2022-08-05T05:27:53.537Z,87.23
2022-08-05T05:28:45.380Z,86.41
2022-08-05T05:30:04.989Z,86.79
2022-08-05T05:30:49.690Z,87.85
2022-08-05T05:31:46.501Z,87.27
2022-08-05T05:32:44.858Z,87.66
2022-08-05T05:33:59.768Z,87.37
2022-08-05T05:34:44.874Z,88.05
2022-08-05T05:35:44.857Z,87.95
2022-08-05T05:36:45.629Z,87.66
2022-08-05T05:37:59.399Z,88.53
2022-08-05T05:38:44.885Z,88.24
2022-08-05T05:39:44.965Z,87.90
2022-08-05T05:40:49.745Z,87.32
2022-08-05T05:41:44.862Z,86.60
2022-08-05T05:42:47.149Z,86.65
2022-08-05T05:43:57.577Z,86.51
2022-08-05T05:44:45.958Z,86.89
2022-08-05T05:45:48.441Z,87.66
2022-08-05T05:46:44.832Z,87.76
2022-08-05T05:48:06.392Z,88.24
2022-08-05T05:48:45.991Z,89.01
2022-08-05T05:49:44.824Z,90.17
2022-08-05T05:50:44.837Z,90.17
2022-08-05T05:51:49.870Z,89.31
2022-08-05T05:52:46.568Z,90.08
2022-08-05T05:53:45.916Z,90.37
2022-08-05T05:54:50.781Z,89.79
2022-08-05T05:55:51.980Z,87.95
2022-08-05T05:56:44.820Z,87.18
2022-08-05T05:57:52.188Z,87.47
2022-08-05T05:58:44.822Z,87.95
2022-08-05T05:59:44.804Z,86.79
2022-08-05T06:00:45.770Z,86.79
2022-08-05T06:01:57.884Z,86.89
2022-08-05T06:02:44.820Z,87.08
2022-08-05T06:04:01.379Z,88.05
2022-08-05T06:04:49.281Z,88.15
2022-08-05T06:05:44.807Z,88.05
2022-08-05T06:06:47.699Z,87.85
2022-08-05T06:07:57.825Z,87.27
2022-08-05T06:08:44.769Z,87.95
2022-08-05T06:10:01.705Z,87.47
2022-08-05T06:10:52.422Z,86.79
2022-08-05T06:11:48.854Z,86.69
2022-08-05T06:12:44.761Z,86.31
2022-08-05T06:13:53.705Z,87.37
2022-08-05T06:14:44.787Z,87.66
2022-08-05T06:16:28.978Z,87.66
2022-08-05T06:16:44.756Z,88.15
2022-08-05T06:17:53.553Z,87.95
2022-08-05T06:18:44.740Z,88.15
2022-08-05T06:19:45.397Z,88.53
2022-08-05T06:20:47.909Z,89.79
2022-08-05T06:21:49.632Z,88.53
2022-08-05T06:22:44.747Z,87.95
2022-08-05T06:23:44.737Z,88.43
2022-08-05T06:24:48.307Z,88.67
2022-08-05T06:26:12.836Z,87.85
2022-08-05T06:26:51.784Z,88.43
2022-08-05T06:28:12.352Z,88.92
2022-08-05T06:28:44.716Z,89.21
2022-08-05T06:29:49.620Z,89.69
2022-08-05T06:30:44.719Z,89.59
2022-08-05T06:31:44.708Z,89.31
2022-08-05T06:32:44.769Z,89.35
2022-08-05T06:34:06.080Z,88.87
2022-08-05T06:34:44.712Z,90.12
2022-08-05T06:36:03.558Z,89.35
2022-08-05T06:36:56.938Z,89.54
2022-08-05T06:37:57.701Z,88.96
2022-08-05T06:38:47.198Z,89.06
2022-08-05T06:39:44.725Z,89.01
2022-08-05T06:40:44.883Z,88.62
2022-08-05T06:41:44.739Z,88.23
2022-08-05T06:42:44.711Z,89.59
2022-08-05T06:43:59.750Z,88.48
2022-08-05T06:44:44.716Z,89.06
2022-08-05T06:46:03.832Z,90.32
2022-08-05T06:46:44.713Z,89.74
2022-08-05T06:48:44.293Z,88.87
2022-08-05T06:48:55.561Z,89.45
2022-08-05T06:50:00.130Z,90.32
2022-08-05T06:50:44.678Z,90.41
2022-08-05T06:51:44.678Z,89.25
2022-08-05T06:52:44.678Z,88.87
2022-08-05T06:53:44.658Z,88.48
2022-08-05T06:54:44.687Z,89.74
2022-08-05T06:55:44.645Z,89.59
2022-08-05T06:56:54.820Z,89.39
2022-08-05T06:57:57.870Z,88.23
2022-08-05T06:58:44.649Z,89.39
2022-08-05T06:59:48.426Z,88.53
2022-08-05T07:00:44.746Z,87.79
2022-08-05T07:01:44.702Z,88.57
2022-08-05T07:02:44.648Z,86.63
2022-08-05T07:03:44.645Z,87.35
2022-08-05T07:04:44.641Z,86.13
2022-08-05T07:05:44.623Z,85.27
2022-08-05T07:06:44.626Z,85.99
2022-08-05T07:07:44.789Z,83.40
2022-08-05T07:08:48.087Z,82.44
2022-08-05T07:09:44.616Z,81.66
2022-08-05T07:10:52.324Z,81.18
2022-08-05T07:11:49.436Z,80.79
2022-08-05T07:12:49.131Z,81.51
2022-08-05T07:13:58.822Z,80.25
2022-08-05T07:14:44.614Z,79.90
2022-08-05T07:16:00.885Z,78.92
2022-08-05T07:18:00.303Z,77.57
2022-08-05T07:18:00.822Z,79.57
2022-08-05T07:18:47.952Z,78.21
2022-08-05T07:20:44.600Z,79.28
2022-08-05T07:22:00.149Z,78.31
2022-08-05T07:22:44.619Z,78.69
2022-08-05T07:23:49.963Z,77.92
2022-08-05T07:25:54.775Z,78.11
2022-08-05T07:26:44.589Z,77.92
2022-08-05T07:27:59.785Z,77.92
2022-08-05T07:28:44.629Z,78.34
2022-08-05T07:30:24.330Z,78.25
2022-08-05T07:30:44.587Z,76.73
2022-08-05T07:31:54.626Z,77.22
2022-08-05T07:32:44.599Z,76.44
2022-08-05T07:33:44.586Z,76.25
2022-08-05T07:34:44.568Z,75.72
2022-08-05T07:36:02.655Z,76.01
2022-08-05T07:36:44.582Z,76.64
2022-08-05T07:37:44.569Z,76.64
2022-08-05T07:38:44.558Z,75.18
2022-08-05T07:40:04.492Z,75.67
2022-08-05T07:40:44.855Z,75.67
2022-08-05T07:42:13.614Z,75.95
2022-08-05T07:42:44.762Z,75.02
2022-08-05T07:43:44.658Z,75.99
2022-08-05T07:44:44.565Z,74.63
2022-08-05T07:45:57.305Z,73.08
2022-08-05T07:46:48.307Z,73.60
2022-08-05T07:47:44.575Z,72.92
2022-08-05T07:49:00.489Z,73.56
2022-08-05T07:49:54.462Z,73.66
2022-08-05T07:50:44.576Z,72.78
2022-08-05T07:51:52.891Z,73.46
2022-08-05T07:52:44.573Z,74.15
2022-08-05T07:53:50.531Z,73.04
2022-08-05T07:54:47.687Z,73.82
2022-08-05T07:56:05.324Z,74.34
2022-08-05T07:57:14.657Z,73.56
2022-08-05T07:58:02.414Z,72.82
2022-08-05T07:58:54.799Z,71.36
2022-08-05T07:59:44.596Z,72.27
2022-08-05T08:00:44.683Z,70.91
2022-08-05T08:01:52.403Z,69.42
2022-08-05T08:03:15.075Z,70.91
2022-08-05T08:03:45.099Z,71.11
2022-08-05T08:04:44.965Z,70.13
2022-08-05T08:05:49.458Z,69.35
2022-08-05T08:06:44.563Z,69.45
2022-08-05T08:07:59.283Z,69.00
2022-08-05T08:08:44.546Z,69.39
2022-08-05T08:09:44.584Z,69.32
2022-08-05T08:10:44.560Z,67.77
2022-08-05T08:11:47.800Z,67.60
2022-08-05T08:12:49.741Z,64.00
2022-08-05T08:13:49.527Z,63.93
2022-08-05T08:14:46.670Z,64.91
2022-08-05T08:16:50.417Z,63.67
2022-08-05T08:16:51.262Z,65.43
2022-08-05T08:17:50.600Z,63.96
2022-08-05T08:18:50.270Z,64.91
2022-08-05T08:20:22.214Z,63.84
2022-08-05T08:21:01.979Z,64.52
2022-08-05T08:21:44.573Z,62.47
2022-08-05T08:22:44.566Z,63.45
2022-08-05T08:24:02.806Z,62.47
2022-08-05T08:24:51.987Z,63.68
2022-08-05T08:26:00.485Z,64.55
2022-08-05T08:26:44.575Z,65.43
2022-08-05T08:27:47.811Z,65.04
2022-08-05T08:28:59.272Z,65.69
2022-08-05T08:30:04.705Z,66.27
2022-08-05T08:30:47.803Z,66.83
2022-08-05T08:31:44.586Z,67.41
2022-08-05T08:32:44.617Z,67.99
2022-08-05T08:33:44.582Z,67.70
2022-08-05T08:34:44.559Z,68.38
2022-08-05T08:35:52.704Z,66.34
2022-08-05T08:36:52.457Z,66.63
2022-08-05T08:37:45.148Z,67.50
2022-08-05T08:38:44.616Z,68.38
2022-08-05T08:39:49.550Z,66.73
2022-08-05T08:40:51.456Z,67.02
2022-08-05T08:41:52.525Z,66.53
2022-08-05T08:42:50.984Z,68.02
2022-08-05T08:45:19.670Z,67.73
2022-08-05T08:45:21.152Z,66.96
2022-08-05T08:45:44.595Z,66.66
2022-08-05T08:46:44.632Z,66.86
2022-08-05T08:48:06.656Z,65.30
2022-08-05T08:49:07.511Z,66.08
2022-08-05T08:50:14.664Z,66.86
2022-08-05T08:51:03.389Z,65.98
2022-08-05T08:52:05.977Z,66.17
2022-08-05T08:52:51.344Z,65.98
2022-08-05T08:53:45.181Z,65.98
2022-08-05T08:54:44.565Z,63.68
2022-08-05T08:56:04.574Z,66.99
2022-08-05T08:56:47.644Z,66.05
2022-08-05T08:57:58.160Z,66.14
2022-08-05T08:58:48.600Z,64.72
2022-08-05T08:59:47.443Z,65.30
2022-08-05T09:00:44.780Z,66.08
2022-08-05T09:01:44.573Z,64.06
2022-08-05T09:02:44.582Z,63.51
2022-08-05T09:03:45.127Z,63.60
2022-08-05T09:04:58.224Z,64.84
2022-08-05T09:06:07.885Z,64.62
2022-08-05T09:06:44.729Z,65.59
2022-08-05T09:07:57.017Z,63.35
2022-08-05T09:08:44.593Z,66.11
2022-08-05T09:09:44.662Z,64.39
2022-08-05T09:10:46.941Z,63.12
2022-08-05T09:11:52.922Z,63.09
2022-08-05T09:12:44.600Z,65.82
2022-08-05T09:14:10.274Z,63.28
2022-08-05T09:14:57.231Z,64.06
2022-08-05T09:15:44.592Z,62.60
2022-08-05T09:16:48.562Z,64.06
2022-08-05T09:17:49.655Z,62.79
2022-08-05T09:18:44.598Z,64.87
2022-08-05T09:19:55.206Z,63.93
2022-08-05T09:20:44.600Z,61.27
2022-08-05T09:22:17.761Z,61.27
2022-08-05T09:22:51.700Z,61.82
2022-08-05T09:23:44.575Z,62.24
2022-08-05T09:24:44.627Z,63.80
2022-08-05T09:26:00.858Z,63.93
2022-08-05T09:26:44.616Z,60.10
2022-08-05T09:28:05.053Z,61.56
2022-08-05T09:28:44.625Z,62.50
2022-08-05T09:29:47.810Z,64.06
2022-08-05T09:30:44.605Z,61.79
2022-08-05T09:32:41.835Z,62.86
2022-08-05T09:32:46.725Z,62.18
2022-08-05T09:33:44.802Z,62.47
2022-08-05T09:34:44.597Z,62.18
2022-08-05T09:35:44.606Z,61.60
2022-08-05T09:36:45.818Z,63.45
2022-08-05T09:38:16.621Z,63.35
2022-08-05T09:38:44.622Z,63.15
2022-08-05T09:39:50.500Z,63.54
2022-08-05T09:40:52.459Z,63.45
2022-08-05T09:41:44.612Z,63.15
2022-08-05T09:42:44.598Z,63.64
2022-08-05T09:43:44.616Z,62.57
2022-08-05T09:44:44.596Z,62.31
2022-08-05T09:46:06.757Z,62.63
2022-08-05T09:46:51.825Z,61.27
2022-08-05T09:47:55.446Z,61.46
2022-08-05T09:49:06.512Z,61.33
2022-08-05T09:50:01.210Z,61.43
2022-08-05T09:50:45.446Z,61.89
2022-08-05T09:51:44.601Z,62.57
2022-08-05T09:52:45.051Z,62.86
2022-08-05T09:53:54.907Z,62.18
2022-08-05T09:54:44.628Z,62.41
2022-08-05T09:55:57.336Z,62.24
2022-08-05T09:56:51.861Z,61.46
2022-08-05T09:57:44.628Z,61.56
2022-08-05T09:58:44.683Z,61.07
2022-08-05T09:59:44.600Z,60.39
2022-08-05T10:00:44.610Z,61.27
2022-08-05T10:01:45.759Z,60.78
2022-08-05T10:02:44.683Z,61.27
2022-08-05T10:03:56.968Z,60.97
2022-08-05T10:04:44.627Z,60.39
2022-08-05T10:05:44.609Z,59.64
2022-08-05T10:06:54.729Z,59.64
2022-08-05T10:08:11.089Z,59.57
2022-08-05T10:08:54.009Z,59.77
2022-08-05T10:09:45.342Z,57.93
2022-08-05T10:10:44.682Z,58.33
2022-08-05T10:11:44.612Z,59.72
2022-08-05T10:12:49.195Z,56.89
2022-08-05T10:13:48.345Z,57.60
2022-08-05T10:14:44.840Z,57.73
2022-08-05T10:15:44.619Z,55.08
2022-08-05T10:16:52.899Z,55.96
2022-08-05T10:17:54.418Z,55.28
2022-08-05T10:18:44.642Z,56.26
2022-08-05T10:20:03.117Z,55.87
2022-08-05T10:20:47.926Z,55.47
2022-08-05T10:21:44.639Z,55.47
2022-08-05T10:22:48.805Z,55.26
2022-08-05T10:23:59.587Z,55.47
2022-08-05T10:24:46.009Z,55.18
2022-08-05T10:25:44.654Z,56.43
2022-08-05T10:26:49.075Z,55.47
2022-08-05T10:28:13.798Z,56.04
2022-08-05T10:28:45.320Z,55.26
2022-08-05T10:30:40.987Z,55.28
2022-08-05T10:32:48.473Z,54.89
2022-08-05T10:32:51.845Z,51.17
2022-08-05T10:32:51.960Z,53.13
2022-08-05T10:33:44.673Z,51.20
2022-08-05T10:34:44.675Z,50.81
2022-08-05T10:35:45.967Z,51.22
2022-08-05T10:36:44.658Z,50.93
2022-08-05T10:37:45.276Z,50.63
2022-08-05T10:38:45.095Z,50.93
2022-08-05T10:39:59.260Z,52.13
2022-08-05T10:40:44.996Z,49.21
2022-08-05T10:41:46.419Z,48.63
2022-08-05T10:42:44.667Z,49.70
2022-08-05T10:43:44.684Z,47.06
2022-08-05T10:44:44.701Z,47.45
2022-08-05T10:45:44.742Z,46.17
2022-08-05T10:46:44.691Z,46.17
2022-08-05T10:47:56.143Z,45.51
2022-08-05T10:48:57.146Z,45.59
2022-08-05T10:49:48.723Z,47.08
2022-08-05T10:50:44.825Z,46.76
2022-08-05T10:51:53.220Z,48.16
2022-08-05T10:52:46.996Z,47.08
2022-08-05T10:53:45.169Z,48.77
2022-08-05T10:54:46.944Z,48.47
2022-08-05T10:56:05.150Z,48.45
2022-08-05T10:56:44.856Z,49.75
2022-08-05T10:57:44.886Z,48.06
2022-08-05T10:58:49.456Z,48.35
2022-08-05T11:00:02.570Z,49.24
2022-08-05T11:00:44.724Z,48.65
2022-08-05T11:01:44.728Z,48.25
2022-08-05T11:02:44.844Z,48.06
2022-08-05T11:03:44.731Z,48.25
2022-08-05T11:04:44.735Z,48.74
2022-08-05T11:05:44.721Z,49.24
2022-08-05T11:06:44.828Z,49.14
2022-08-05T11:08:01.023Z,50.32
2022-08-05T11:08:44.745Z,48.35
2022-08-05T11:09:46.366Z,48.72
2022-08-05T11:10:50.363Z,49.70
2022-08-05T11:11:53.581Z,50.78
2022-08-05T11:12:45.345Z,50.20
2022-08-05T11:13:57.641Z,49.11
2022-08-05T11:16:00.326Z,51.22
2022-08-05T11:16:34.021Z,51.15
2022-08-05T11:17:59.992Z,51.44
2022-08-05T11:18:27.134Z,49.60
2022-08-05T11:20:10.526Z,49.90
2022-08-05T11:20:27.167Z,49.97
2022-08-05T11:21:27.174Z,50.37
2022-08-05T11:22:27.165Z,49.77
2022-08-05T11:23:57.695Z,49.87
2022-08-05T11:24:30.025Z,51.34
2022-08-05T11:26:05.849Z,48.92
2022-08-05T11:26:28.905Z,49.70
2022-08-05T11:27:27.155Z,48.63
2022-08-05T11:28:27.226Z,47.94
2022-08-05T11:29:27.398Z,49.21
2022-08-05T11:30:27.181Z,49.24
2022-08-05T11:31:54.441Z,46.08
2022-08-05T11:32:27.444Z,46.20
2022-08-05T11:33:34.495Z,46.98
2022-08-05T11:34:27.226Z,47.67
2022-08-05T11:35:27.209Z,48.25
2022-08-05T11:36:34.723Z,46.20
2022-08-05T11:38:29.336Z,47.00
2022-08-05T11:38:29.748Z,45.34
2022-08-05T11:39:27.272Z,46.10
2022-08-05T11:40:27.185Z,46.69
2022-08-05T11:41:54.729Z,46.51
2022-08-05T11:42:28.175Z,45.02
2022-08-05T11:44:02.813Z,45.63
2022-08-05T11:44:40.316Z,44.84
2022-08-05T11:46:27.514Z,44.77
2022-08-05T11:46:33.441Z,43.57
2022-08-05T11:47:49.843Z,43.88
2022-08-05T11:48:27.217Z,43.47
2022-08-05T11:49:27.594Z,44.16
2022-08-05T11:50:27.271Z,44.13
2022-08-05T11:51:44.776Z,45.51
2022-08-05T11:52:29.545Z,44.33
2022-08-05T11:53:27.227Z,44.33
2022-08-05T11:54:32.724Z,44.90
2022-08-05T11:55:31.773Z,44.80
2022-08-05T11:56:41.168Z,44.12
2022-08-05T11:57:27.376Z,44.51
2022-08-05T11:58:27.316Z,44.70
2022-08-05T11:59:27.308Z,45.98
2022-08-05T12:00:27.556Z,45.78
2022-08-05T12:01:27.267Z,45.76
2022-08-05T12:02:31.329Z,45.86
2022-08-05T12:03:31.639Z,46.42
2022-08-05T12:04:27.273Z,47.38
2022-08-05T12:05:36.173Z,47.47
2022-08-05T12:06:27.268Z,47.08
2022-08-05T12:08:08.693Z,47.18
2022-08-05T12:08:27.281Z,47.57
2022-08-05T12:09:38.498Z,49.11
2022-08-05T12:10:38.396Z,47.85
2022-08-05T12:11:28.346Z,47.53
2022-08-05T12:12:27.276Z,47.53
2022-08-05T12:13:47.803Z,48.21
2022-08-05T12:14:27.295Z,49.26
2022-08-05T12:15:37.918Z,49.16
2022-08-05T12:16:27.327Z,49.07
2022-08-05T12:18:00.600Z,49.36
2022-08-05T12:18:30.907Z,49.07
2022-08-05T12:20:26.766Z,49.04
2022-08-05T12:20:33.505Z,50.61
2022-08-05T12:21:30.192Z,49.90
2022-08-05T12:22:27.293Z,50.61
2022-08-05T12:23:27.322Z,50.61
2022-08-05T12:24:27.359Z,50.51
2022-08-05T12:25:28.556Z,51.46
2022-08-05T12:26:27.467Z,50.49
2022-08-05T12:27:32.630Z,51.46
2022-08-05T12:28:27.346Z,51.56
2022-08-05T12:29:27.347Z,50.88
2022-08-05T12:30:29.031Z,50.68
2022-08-05T12:31:33.130Z,51.46
2022-08-05T12:32:27.308Z,51.27
2022-08-05T12:33:36.582Z,51.56
2022-08-05T12:34:27.346Z,51.07
2022-08-05T12:35:37.245Z,50.22
2022-08-05T12:36:27.403Z,49.75
2022-08-05T12:37:30.084Z,50.15
2022-08-05T12:38:30.216Z,49.97
2022-08-05T12:39:27.969Z,49.87
2022-08-05T12:40:29.648Z,49.60
2022-08-05T12:41:34.506Z,48.65
2022-08-05T12:42:27.347Z,46.89
2022-08-05T12:43:27.359Z,47.55
2022-08-05T12:44:33.209Z,47.92
2022-08-05T12:45:48.377Z,50.17
2022-08-05T12:46:28.822Z,49.38
2022-08-05T12:47:28.695Z,48.90
2022-08-05T12:48:32.915Z,48.80
2022-08-05T12:49:27.373Z,48.77
2022-08-05T12:50:27.377Z,49.09
2022-08-05T12:52:14.264Z,49.38
2022-08-05T12:52:35.280Z,49.29
2022-08-05T12:53:37.067Z,49.80
2022-08-05T12:54:27.355Z,47.45
2022-08-05T12:55:28.353Z,46.30
2022-08-05T12:56:34.896Z,46.50